PWSweather.com
Personal Weather Stations
Station Observations
KTXPLANO60
Highlands Of Russell Park, Plano, TX 75025

Highlands Of Russell ParkPlano, TX 75025

Lat: 33.10431671, Lon: -96.75176239

Elevation: 761

Station Type: Davis Wireless VP2 Plus

http://www.planoweather.com

High Low Average
Temperature 47.2°F8.4°C 24.1°F-4.4°C 34.9°F1.6°C
Dew Point 27.1°F-2.7°C 19.8°F-6.8°C 23.3°F-4.8°C
Winds 10.4 mph 16.7 kmh Calm Calm 5.0 mph SW8.0 kmh SW
Wind Gusts 16.1 mph25.9 kmh 2.3 mph3.7 kmh 7.0 mph11.3 kmh
Humidity 85% 39% 65%
Pressure 30.41 in1029.8 mb 30.18 in1022.0 mb -
Precipitation 0.00 in0.0 mm - -
Hour Temp Dew Point Humidity Winds Wind Gusts Pressure Precip Precip Rate Daily Precip Total
12:00 AM 28.4°F-2.0°C 21.5°F-5.8°C 75% 8.1 mph N13.0 kmh N 11.5 mph18.5 kmh 30.35 in1027.8 mb - 0.00 in0.0 mm 0.00 in0.0 mm
12:10 AM 28.3°F-2.1°C 21.4°F-5.9°C 75% 8.1 mph NW13.0 kmh NW 10.4 mph16.7 kmh 30.35 in1027.8 mb - 0.00 in0.0 mm 0.00 in0.0 mm
12:20 AM 28.2°F-2.1°C 21.3°F-5.9°C 75% 10.4 mph N16.7 kmh N 13.8 mph22.2 kmh 30.35 in1027.8 mb - 0.00 in0.0 mm 0.00 in0.0 mm
12:30 AM 28.0°F-2.2°C 21.4°F-5.9°C 76% 8.1 mph NNW13.0 kmh NNW 15.0 mph24.1 kmh 30.36 in1028.1 mb - 0.00 in0.0 mm 0.00 in0.0 mm
12:40 AM 27.9°F-2.3°C 21.3°F-5.9°C 76% 6.9 mph NNW11.1 kmh NNW 13.8 mph22.2 kmh 30.36 in1028.1 mb - 0.00 in0.0 mm 0.00 in0.0 mm
12:50 AM 27.7°F-2.4°C 21.1°F-6.1°C 76% 8.1 mph NNW13.0 kmh NNW 11.5 mph18.5 kmh 30.36 in1028.1 mb - 0.00 in0.0 mm 0.00 in0.0 mm
01:00 AM 27.6°F-2.4°C 21.0°F-6.1°C 76% 8.1 mph NW13.0 kmh NW 10.4 mph16.7 kmh 30.36 in1028.1 mb - 0.00 in0.0 mm 0.00 in0.0 mm
01:10 AM 27.5°F-2.5°C 21.2°F-6.0°C 77% 5.8 mph N9.3 kmh N 10.4 mph16.7 kmh 30.37 in1028.4 mb - 0.00 in0.0 mm 0.00 in0.0 mm
01:20 AM 27.4°F-2.6°C 21.1°F-6.1°C 77% 3.5 mph NNW5.6 kmh NNW 6.9 mph11.1 kmh 30.37 in1028.4 mb - 0.00 in0.0 mm 0.00 in0.0 mm
01:30 AM 27.2°F-2.7°C 21.2°F-6.0°C 78% 5.8 mph NNW9.3 kmh NNW 9.2 mph14.8 kmh 30.36 in1028.1 mb - 0.00 in0.0 mm 0.00 in0.0 mm
01:40 AM 27.0°F-2.8°C 21.1°F-6.1°C 78% 5.8 mph NW9.3 kmh NW 9.2 mph14.8 kmh 30.36 in1028.1 mb - 0.00 in0.0 mm 0.00 in0.0 mm
01:50 AM 26.9°F-2.8°C 21.3°F-5.9°C 79% 4.6 mph N7.4 kmh N 5.8 mph9.3 kmh 30.36 in1028.1 mb - 0.00 in0.0 mm 0.00 in0.0 mm
02:00 AM 26.8°F-2.9°C 21.2°F-6.0°C 79% 5.8 mph N9.3 kmh N 9.2 mph14.8 kmh 30.36 in1028.1 mb - 0.00 in0.0 mm 0.00 in0.0 mm
02:10 AM 26.6°F-3.0°C 21.0°F-6.1°C 79% 6.9 mph N11.1 kmh N 8.1 mph13.0 kmh 30.36 in1028.1 mb - 0.00 in0.0 mm 0.00 in0.0 mm
02:20 AM 26.6°F-3.0°C 20.6°F-6.3°C 78% 5.8 mph N9.3 kmh N 10.4 mph16.7 kmh 30.35 in1027.8 mb - 0.00 in0.0 mm 0.00 in0.0 mm
02:30 AM 26.5°F-3.1°C 20.8°F-6.2°C 79% 6.9 mph NNW11.1 kmh NNW 9.2 mph14.8 kmh 30.36 in1028.1 mb - 0.00 in0.0 mm 0.00 in0.0 mm
02:40 AM 26.3°F-3.2°C 20.7°F-6.3°C 79% 4.6 mph NW7.4 kmh NW 6.9 mph11.1 kmh 30.36 in1028.1 mb - 0.00 in0.0 mm 0.00 in0.0 mm
02:50 AM 26.2°F-3.2°C 20.9°F-6.2°C 80% 5.8 mph NNW9.3 kmh NNW 8.1 mph13.0 kmh 30.36 in1028.1 mb - 0.00 in0.0 mm 0.00 in0.0 mm
03:00 AM 26.0°F-3.3°C 21.0°F-6.1°C 81% 5.8 mph NNW9.3 kmh NNW 8.1 mph13.0 kmh 30.37 in1028.4 mb - 0.00 in0.0 mm 0.00 in0.0 mm
03:10 AM 25.8°F-3.4°C 20.8°F-6.2°C 81% 3.5 mph NNW5.6 kmh NNW 8.1 mph13.0 kmh 30.37 in1028.4 mb - 0.00 in0.0 mm 0.00 in0.0 mm
03:20 AM 25.7°F-3.5°C 20.7°F-6.3°C 81% 4.6 mph NW7.4 kmh NW 6.9 mph11.1 kmh 30.38 in1028.8 mb - 0.00 in0.0 mm 0.00 in0.0 mm
03:30 AM 25.6°F-3.6°C 20.9°F-6.2°C 82% 6.9 mph NNW11.1 kmh NNW 9.2 mph14.8 kmh 30.36 in1028.1 mb - 0.00 in0.0 mm 0.00 in0.0 mm
03:40 AM 25.5°F-3.6°C 20.8°F-6.2°C 82% 5.8 mph N9.3 kmh N 5.8 mph9.3 kmh 30.35 in1027.8 mb - 0.00 in0.0 mm 0.00 in0.0 mm
03:50 AM 25.4°F-3.7°C 20.7°F-6.3°C 82% 4.6 mph N7.4 kmh N 6.9 mph11.1 kmh 30.35 in1027.8 mb - 0.00 in0.0 mm 0.00 in0.0 mm
04:00 AM 25.4°F-3.7°C 20.7°F-6.3°C 82% 4.6 mph N7.4 kmh N 6.9 mph11.1 kmh 30.36 in1028.1 mb - 0.00 in0.0 mm 0.00 in0.0 mm
04:10 AM 25.3°F-3.7°C 20.6°F-6.3°C 82% 5.8 mph NW9.3 kmh NW 9.2 mph14.8 kmh 30.36 in1028.1 mb - 0.00 in0.0 mm 0.00 in0.0 mm
04:20 AM 25.2°F-3.8°C 20.5°F-6.4°C 82% 2.3 mph NNE3.7 kmh NNE 5.8 mph9.3 kmh 30.35 in1027.8 mb - 0.00 in0.0 mm 0.00 in0.0 mm
04:30 AM 25.1°F-3.8°C 20.4°F-6.4°C 82% 2.3 mph N3.7 kmh N 3.5 mph5.6 kmh 30.34 in1027.4 mb - 0.00 in0.0 mm 0.00 in0.0 mm
04:40 AM 25.0°F-3.9°C 20.3°F-6.5°C 82% 4.6 mph N7.4 kmh N 6.9 mph11.1 kmh 30.35 in1027.8 mb - 0.00 in0.0 mm 0.00 in0.0 mm
04:50 AM 24.9°F-3.9°C 20.2°F-6.6°C 82% 1.2 mph NW1.9 kmh NW 2.3 mph3.7 kmh 30.34 in1027.4 mb - 0.00 in0.0 mm 0.00 in0.0 mm
05:00 AM 24.7°F-4.1°C 20.0°F-6.7°C 82% 3.5 mph NW5.6 kmh NW 4.6 mph7.4 kmh 30.34 in1027.4 mb - 0.00 in0.0 mm 0.00 in0.0 mm
05:10 AM 24.5°F-4.2°C 19.8°F-6.8°C 82% 3.5 mph WNW5.6 kmh WNW 3.5 mph5.6 kmh 30.34 in1027.4 mb - 0.00 in0.0 mm 0.00 in0.0 mm
05:20 AM 24.4°F-4.2°C 20.0°F-6.7°C 83% 1.2 mph WNW1.9 kmh WNW 3.5 mph5.6 kmh 30.34 in1027.4 mb - 0.00 in0.0 mm 0.00 in0.0 mm
05:30 AM 24.3°F-4.3°C 19.9°F-6.7°C 83% 3.5 mph W5.6 kmh W 5.8 mph9.3 kmh 30.34 in1027.4 mb - 0.00 in0.0 mm 0.00 in0.0 mm
05:40 AM 24.2°F-4.3°C 20.1°F-6.6°C 84% 3.5 mph WSW5.6 kmh WSW 4.6 mph7.4 kmh 30.34 in1027.4 mb - 0.00 in0.0 mm 0.00 in0.0 mm
05:50 AM 24.2°F-4.3°C 20.1°F-6.6°C 84% 4.6 mph W7.4 kmh W 4.6 mph7.4 kmh 30.35 in1027.8 mb - 0.00 in0.0 mm 0.00 in0.0 mm
06:00 AM 24.2°F-4.3°C 20.3°F-6.5°C 85% 2.3 mph W3.7 kmh W 3.5 mph5.6 kmh 30.36 in1028.1 mb - 0.00 in0.0 mm 0.00 in0.0 mm
06:10 AM 24.2°F-4.3°C 20.4°F-6.4°C 85% 2.3 mph W3.7 kmh W 4.6 mph7.4 kmh 30.36 in1028.1 mb - 0.00 in0.0 mm 0.00 in0.0 mm
06:20 AM 24.3°F-4.3°C 20.1°F-6.6°C 84% 3.5 mph WNW5.6 kmh WNW 6.9 mph11.1 kmh 30.36 in1028.1 mb - 0.00 in0.0 mm 0.00 in0.0 mm
06:30 AM 24.2°F-4.3°C 20.1°F-6.6°C 84% 4.6 mph NNW7.4 kmh NNW 6.9 mph11.1 kmh 30.35 in1027.8 mb - 0.00 in0.0 mm 0.00 in0.0 mm
06:40 AM 24.2°F-4.3°C 20.1°F-6.6°C 84% 4.6 mph NW7.4 kmh NW 6.9 mph11.1 kmh 30.36 in1028.1 mb - 0.00 in0.0 mm 0.00 in0.0 mm
06:50 AM 24.2°F-4.3°C 20.1°F-6.6°C 84% 3.5 mph NW5.6 kmh NW 6.9 mph11.1 kmh 30.37 in1028.4 mb - 0.00 in0.0 mm 0.00 in0.0 mm
07:00 AM 24.1°F-4.4°C 20.0°F-6.7°C 84% 3.5 mph NNW5.6 kmh NNW 4.6 mph7.4 kmh 30.37 in1028.4 mb - 0.00 in0.0 mm 0.00 in0.0 mm
07:10 AM 24.1°F-4.4°C 20.0°F-6.7°C 84% 2.3 mph NW3.7 kmh NW 3.5 mph5.6 kmh 30.37 in1028.4 mb - 0.00 in0.0 mm 0.00 in0.0 mm
07:20 AM 24.2°F-4.3°C 20.1°F-6.6°C 84% 2.3 mph NW3.7 kmh NW 5.8 mph9.3 kmh 30.37 in1028.4 mb - 0.00 in0.0 mm 0.00 in0.0 mm
07:30 AM 24.2°F-4.3°C 20.1°F-6.6°C 84% 4.6 mph NW7.4 kmh NW 5.8 mph9.3 kmh 30.37 in1028.4 mb - 0.00 in0.0 mm 0.00 in0.0 mm
07:40 AM 24.4°F-4.2°C 20.3°F-6.5°C 84% 4.6 mph NW7.4 kmh NW 6.9 mph11.1 kmh 30.37 in1028.4 mb - 0.00 in0.0 mm 0.00 in0.0 mm
07:50 AM 24.5°F-4.2°C 20.4°F-6.4°C 84% 4.6 mph NW7.4 kmh NW 8.1 mph13.0 kmh 30.38 in1028.8 mb - 0.00 in0.0 mm 0.00 in0.0 mm
08:00 AM 24.8°F-4.0°C 20.7°F-6.3°C 84% 4.6 mph NW7.4 kmh NW 6.9 mph11.1 kmh 30.38 in1028.8 mb - 0.00 in0.0 mm 0.00 in0.0 mm
08:10 AM 25.2°F-3.8°C 21.0°F-6.1°C 84% 5.8 mph NW9.3 kmh NW 6.9 mph11.1 kmh 30.39 in1029.1 mb - 0.00 in0.0 mm 0.00 in0.0 mm
08:20 AM 25.7°F-3.5°C 21.3°F-5.9°C 83% 5.8 mph N9.3 kmh N 6.9 mph11.1 kmh 30.37 in1028.4 mb - 0.00 in0.0 mm 0.00 in0.0 mm
08:30 AM 26.0°F-3.3°C 21.3°F-5.9°C 82% 2.3 mph NW3.7 kmh NW 6.9 mph11.1 kmh 30.39 in1029.1 mb - 0.00 in0.0 mm 0.00 in0.0 mm
08:40 AM 26.3°F-3.2°C 21.6°F-5.8°C 82% 5.8 mph NNW9.3 kmh NNW 8.1 mph13.0 kmh 30.39 in1029.1 mb - 0.00 in0.0 mm 0.00 in0.0 mm
08:50 AM 26.8°F-2.9°C 21.8°F-5.7°C 81% 5.8 mph NW9.3 kmh NW 8.1 mph13.0 kmh 30.39 in1029.1 mb - 0.00 in0.0 mm 0.00 in0.0 mm
09:00 AM 27.3°F-2.6°C 21.9°F-5.6°C 80% 3.5 mph NW5.6 kmh NW 5.8 mph9.3 kmh 30.39 in1029.1 mb - 0.00 in0.0 mm 0.00 in0.0 mm
09:10 AM 27.8°F-2.3°C 22.1°F-5.5°C 79% 3.5 mph N5.6 kmh N 5.8 mph9.3 kmh 30.38 in1028.8 mb - 0.00 in0.0 mm 0.00 in0.0 mm
09:20 AM 28.9°F-1.7°C 22.3°F-5.4°C 76% 3.5 mph NW5.6 kmh NW 5.8 mph9.3 kmh 30.39 in1029.1 mb - 0.00 in0.0 mm 0.00 in0.0 mm
09:30 AM 29.6°F-1.3°C 22.6°F-5.2°C 75% 5.8 mph NW9.3 kmh NW 6.9 mph11.1 kmh 30.40 in1029.5 mb - 0.00 in0.0 mm 0.00 in0.0 mm
09:40 AM 30.5°F-0.8°C 22.9°F-5.1°C 73% 3.5 mph W5.6 kmh W 3.5 mph5.6 kmh 30.40 in1029.5 mb - 0.00 in0.0 mm 0.00 in0.0 mm
09:50 AM 31.2°F-0.4°C 23.2°F-4.9°C 72% 4.6 mph W7.4 kmh W 6.9 mph11.1 kmh 30.41 in1029.8 mb - 0.00 in0.0 mm 0.00 in0.0 mm
10:00 AM 31.4°F-0.3°C 23.1°F-4.9°C 71% 4.6 mph NW7.4 kmh NW 5.8 mph9.3 kmh 30.40 in1029.5 mb - 0.00 in0.0 mm 0.00 in0.0 mm
10:10 AM 31.7°F-0.2°C 22.7°F-5.2°C 69% 2.3 mph WSW3.7 kmh WSW 3.5 mph5.6 kmh 30.40 in1029.5 mb - 0.00 in0.0 mm 0.00 in0.0 mm
10:20 AM 32.7°F0.4°C 23.7°F-4.6°C 69% 3.5 mph W5.6 kmh W 4.6 mph7.4 kmh 30.40 in1029.5 mb - 0.00 in0.0 mm 0.00 in0.0 mm
10:30 AM 32.9°F0.5°C 22.8°F-5.1°C 66% Calm Calm 2.3 mph3.7 kmh 30.41 in1029.8 mb - 0.00 in0.0 mm 0.00 in0.0 mm
10:40 AM 33.9°F1.1°C 23.0°F-5.0°C 64% 2.3 mph NW3.7 kmh NW 4.6 mph7.4 kmh 30.41 in1029.8 mb - 0.00 in0.0 mm 0.00 in0.0 mm
10:50 AM 34.1°F1.2°C 22.0°F-5.6°C 61% 1.2 mph WNW1.9 kmh WNW 3.5 mph5.6 kmh 30.41 in1029.8 mb - 0.00 in0.0 mm 0.00 in0.0 mm
11:00 AM 35.0°F1.7°C 23.3°F-4.8°C 62% 3.5 mph NNE5.6 kmh NNE 3.5 mph5.6 kmh 30.40 in1029.5 mb - 0.00 in0.0 mm 0.00 in0.0 mm
11:10 AM 36.3°F2.4°C 23.7°F-4.6°C 60% 3.5 mph NW5.6 kmh NW 4.6 mph7.4 kmh 30.41 in1029.8 mb - 0.00 in0.0 mm 0.00 in0.0 mm
11:20 AM 36.8°F2.7°C 23.4°F-4.8°C 58% 1.2 mph NW1.9 kmh NW 2.3 mph3.7 kmh 30.40 in1029.5 mb - 0.00 in0.0 mm 0.00 in0.0 mm
11:30 AM 38.0°F3.3°C 24.1°F-4.4°C 57% Calm Calm 2.3 mph3.7 kmh 30.40 in1029.5 mb - 0.00 in0.0 mm 0.00 in0.0 mm
11:40 AM 38.2°F3.4°C 23.9°F-4.5°C 56% 3.5 mph SSW5.6 kmh SSW 4.6 mph7.4 kmh 30.40 in1029.5 mb - 0.00 in0.0 mm 0.00 in0.0 mm
11:50 AM 38.5°F3.6°C 23.3°F-4.8°C 54% 1.2 mph SSE1.9 kmh SSE 3.5 mph5.6 kmh 30.39 in1029.1 mb - 0.00 in0.0 mm 0.00 in0.0 mm
12:00 PM 39.2°F4.0°C 23.5°F-4.7°C 53% 2.3 mph WSW3.7 kmh WSW 3.5 mph5.6 kmh 30.39 in1029.1 mb - 0.00 in0.0 mm 0.00 in0.0 mm
12:10 PM 40.0°F4.4°C 23.8°F-4.6°C 52% 1.2 mph S1.9 kmh S 2.3 mph3.7 kmh 30.38 in1028.8 mb - 0.00 in0.0 mm 0.00 in0.0 mm
12:20 PM 40.5°F4.7°C 23.8°F-4.6°C 51% 4.6 mph SSE7.4 kmh SSE 6.9 mph11.1 kmh 30.37 in1028.4 mb - 0.00 in0.0 mm 0.00 in0.0 mm
12:30 PM 42.2°F5.7°C 24.8°F-4.0°C 50% 1.2 mph SW1.9 kmh SW 2.3 mph3.7 kmh 30.37 in1028.4 mb - 0.00 in0.0 mm 0.00 in0.0 mm
12:40 PM 42.6°F5.9°C 24.3°F-4.3°C 48% 3.5 mph WSW5.6 kmh WSW 3.5 mph5.6 kmh 30.36 in1028.1 mb - 0.00 in0.0 mm 0.00 in0.0 mm
12:50 PM 43.2°F6.2°C 23.8°F-4.6°C 46% 3.5 mph SSW5.6 kmh SSW 6.9 mph11.1 kmh 30.35 in1027.8 mb - 0.00 in0.0 mm 0.00 in0.0 mm
01:00 PM 42.7°F5.9°C 23.4°F-4.8°C 46% 2.3 mph SE3.7 kmh SE 6.9 mph11.1 kmh 30.34 in1027.4 mb - 0.00 in0.0 mm 0.00 in0.0 mm
01:10 PM 43.4°F6.3°C 24.5°F-4.2°C 47% 2.3 mph SE3.7 kmh SE 4.6 mph7.4 kmh 30.33 in1027.1 mb - 0.00 in0.0 mm 0.00 in0.0 mm
01:20 PM 45.4°F7.4°C 25.2°F-3.8°C 45% 4.6 mph S7.4 kmh S 9.2 mph14.8 kmh 30.31 in1026.4 mb - 0.00 in0.0 mm 0.00 in0.0 mm
01:30 PM 45.2°F7.3°C 24.6°F-4.1°C 44% 4.6 mph SE7.4 kmh SE 5.8 mph9.3 kmh 30.30 in1026.1 mb - 0.00 in0.0 mm 0.00 in0.0 mm
01:40 PM 45.0°F7.2°C 23.9°F-4.5°C 43% 5.8 mph SSE9.3 kmh SSE 6.9 mph11.1 kmh 30.30 in1026.1 mb - 0.00 in0.0 mm 0.00 in0.0 mm
01:50 PM 45.4°F7.4°C 23.6°F-4.7°C 42% 4.6 mph ESE7.4 kmh ESE 11.5 mph18.5 kmh 30.29 in1025.7 mb - 0.00 in0.0 mm 0.00 in0.0 mm
02:00 PM 45.8°F7.7°C 24.0°F-4.4°C 42% 3.5 mph SE5.6 kmh SE 10.4 mph16.7 kmh 30.29 in1025.7 mb - 0.00 in0.0 mm 0.00 in0.0 mm
02:10 PM 45.5°F7.5°C 24.3°F-4.3°C 43% 4.6 mph ESE7.4 kmh ESE 9.2 mph14.8 kmh 30.29 in1025.7 mb - 0.00 in0.0 mm 0.00 in0.0 mm
02:20 PM 45.6°F7.6°C 24.4°F-4.2°C 43% 4.6 mph SE7.4 kmh SE 8.1 mph13.0 kmh 30.27 in1025.1 mb - 0.00 in0.0 mm 0.00 in0.0 mm
02:30 PM 45.6°F7.6°C 23.2°F-4.9°C 41% 5.8 mph SE9.3 kmh SE 8.1 mph13.0 kmh 30.27 in1025.1 mb - 0.00 in0.0 mm 0.00 in0.0 mm
02:40 PM 46.5°F8.1°C 24.0°F-4.4°C 41% 1.2 mph SE1.9 kmh SE 3.5 mph5.6 kmh 30.27 in1025.1 mb - 0.00 in0.0 mm 0.00 in0.0 mm
02:50 PM 46.4°F8.0°C 24.5°F-4.2°C 42% 5.8 mph E9.3 kmh E 9.2 mph14.8 kmh 30.27 in1025.1 mb - 0.00 in0.0 mm 0.00 in0.0 mm
03:00 PM 46.4°F8.0°C 23.9°F-4.5°C 41% 3.5 mph S5.6 kmh S 6.9 mph11.1 kmh 30.27 in1025.1 mb - 0.00 in0.0 mm 0.00 in0.0 mm
03:10 PM 47.2°F8.4°C 24.1°F-4.4°C 40% 4.6 mph SE7.4 kmh SE 12.7 mph20.4 kmh 30.26 in1024.7 mb - 0.00 in0.0 mm 0.00 in0.0 mm
03:20 PM 46.4°F8.0°C 22.8°F-5.1°C 39% 3.5 mph SE5.6 kmh SE 5.8 mph9.3 kmh 30.26 in1024.7 mb - 0.00 in0.0 mm 0.00 in0.0 mm
03:30 PM 46.6°F8.1°C 22.9°F-5.1°C 39% 3.5 mph SE5.6 kmh SE 11.5 mph18.5 kmh 30.25 in1024.4 mb - 0.00 in0.0 mm 0.00 in0.0 mm
03:40 PM 45.9°F7.7°C 23.5°F-4.7°C 41% 5.8 mph SE9.3 kmh SE 9.2 mph14.8 kmh 30.25 in1024.4 mb - 0.00 in0.0 mm 0.00 in0.0 mm
03:50 PM 46.9°F8.3°C 25.5°F-3.6°C 43% 3.5 mph SE5.6 kmh SE 11.5 mph18.5 kmh 30.24 in1024.0 mb - 0.00 in0.0 mm 0.00 in0.0 mm
04:00 PM 46.1°F7.8°C 24.8°F-4.0°C 43% 8.1 mph ESE13.0 kmh ESE 9.2 mph14.8 kmh 30.24 in1024.0 mb - 0.00 in0.0 mm 0.00 in0.0 mm
04:10 PM 46.3°F7.9°C 25.5°F-3.6°C 44% 8.1 mph ESE13.0 kmh ESE 12.7 mph20.4 kmh 30.24 in1024.0 mb - 0.00 in0.0 mm 0.00 in0.0 mm
04:20 PM 46.1°F7.8°C 24.8°F-4.0°C 43% 3.5 mph ESE5.6 kmh ESE 6.9 mph11.1 kmh 30.24 in1024.0 mb - 0.00 in0.0 mm 0.00 in0.0 mm
04:30 PM 45.9°F7.7°C 24.6°F-4.1°C 43% 6.9 mph SE11.1 kmh SE 11.5 mph18.5 kmh 30.24 in1024.0 mb - 0.00 in0.0 mm 0.00 in0.0 mm
04:40 PM 45.5°F7.5°C 25.9°F-3.4°C 46% 5.8 mph ESE9.3 kmh ESE 11.5 mph18.5 kmh 30.24 in1024.0 mb - 0.00 in0.0 mm 0.00 in0.0 mm
04:50 PM 45.1°F7.3°C 25.0°F-3.9°C 45% 8.1 mph SE13.0 kmh SE 9.2 mph14.8 kmh 30.24 in1024.0 mb - 0.00 in0.0 mm 0.00 in0.0 mm
05:00 PM 44.9°F7.2°C 25.3°F-3.7°C 46% 8.1 mph SE13.0 kmh SE 11.5 mph18.5 kmh 30.23 in1023.7 mb - 0.00 in0.0 mm 0.00 in0.0 mm
05:10 PM 44.5°F6.9°C 25.5°F-3.6°C 47% 5.8 mph SE9.3 kmh SE 11.5 mph18.5 kmh 30.23 in1023.7 mb - 0.00 in0.0 mm 0.00 in0.0 mm
05:20 PM 44.0°F6.7°C 25.5°F-3.6°C 48% 5.8 mph ESE9.3 kmh ESE 8.1 mph13.0 kmh 30.23 in1023.7 mb - 0.00 in0.0 mm 0.00 in0.0 mm
05:30 PM 43.6°F6.4°C 26.2°F-3.2°C 50% 3.5 mph SE5.6 kmh SE 6.9 mph11.1 kmh 30.22 in1023.4 mb - 0.00 in0.0 mm 0.00 in0.0 mm
05:40 PM 43.2°F6.2°C 26.3°F-3.2°C 51% 5.8 mph SE9.3 kmh SE 8.1 mph13.0 kmh 30.22 in1023.4 mb - 0.00 in0.0 mm 0.00 in0.0 mm
05:50 PM 42.8°F6.0°C 25.9°F-3.4°C 51% 4.6 mph SE7.4 kmh SE 6.9 mph11.1 kmh 30.22 in1023.4 mb - 0.00 in0.0 mm 0.00 in0.0 mm
06:00 PM 42.5°F5.8°C 26.1°F-3.3°C 52% 4.6 mph SE7.4 kmh SE 5.8 mph9.3 kmh 30.22 in1023.4 mb - 0.00 in0.0 mm 0.00 in0.0 mm
06:10 PM 42.2°F5.7°C 25.8°F-3.4°C 52% 4.6 mph SE7.4 kmh SE 8.1 mph13.0 kmh 30.22 in1023.4 mb - 0.00 in0.0 mm 0.00 in0.0 mm
06:20 PM 41.9°F5.5°C 26.0°F-3.3°C 53% 4.6 mph SE7.4 kmh SE 5.8 mph9.3 kmh 30.22 in1023.4 mb - 0.00 in0.0 mm 0.00 in0.0 mm
06:30 PM 41.6°F5.3°C 26.2°F-3.2°C 54% 3.5 mph SE5.6 kmh SE 4.6 mph7.4 kmh 30.22 in1023.4 mb - 0.00 in0.0 mm 0.00 in0.0 mm
06:40 PM 41.2°F5.1°C 26.7°F-2.9°C 56% 1.2 mph SE1.9 kmh SE 3.5 mph5.6 kmh 30.22 in1023.4 mb - 0.00 in0.0 mm 0.00 in0.0 mm
06:50 PM 40.9°F4.9°C 26.8°F-2.9°C 57% 4.6 mph SE7.4 kmh SE 5.8 mph9.3 kmh 30.22 in1023.4 mb - 0.00 in0.0 mm 0.00 in0.0 mm
07:00 PM 40.6°F4.8°C 26.1°F-3.3°C 56% 3.5 mph SE5.6 kmh SE 5.8 mph9.3 kmh 30.22 in1023.4 mb - 0.00 in0.0 mm 0.00 in0.0 mm
07:10 PM 40.5°F4.7°C 26.0°F-3.3°C 56% 5.8 mph SE9.3 kmh SE 8.1 mph13.0 kmh 30.22 in1023.4 mb - 0.00 in0.0 mm 0.00 in0.0 mm
07:20 PM 40.5°F4.7°C 25.6°F-3.6°C 55% 4.6 mph SE7.4 kmh SE 4.6 mph7.4 kmh 30.22 in1023.4 mb - 0.00 in0.0 mm 0.00 in0.0 mm
07:30 PM 40.4°F4.7°C 25.9°F-3.4°C 56% 4.6 mph SE7.4 kmh SE 6.9 mph11.1 kmh 30.22 in1023.4 mb - 0.00 in0.0 mm 0.00 in0.0 mm
07:40 PM 40.2°F4.6°C 25.7°F-3.5°C 56% 6.9 mph SE11.1 kmh SE 8.1 mph13.0 kmh 30.21 in1023.0 mb - 0.00 in0.0 mm 0.00 in0.0 mm
07:50 PM 39.9°F4.4°C 25.9°F-3.4°C 57% 2.3 mph SE3.7 kmh SE 3.5 mph5.6 kmh 30.22 in1023.4 mb - 0.00 in0.0 mm 0.00 in0.0 mm
08:00 PM 39.7°F4.3°C 26.1°F-3.3°C 58% 2.3 mph SE3.7 kmh SE 4.6 mph7.4 kmh 30.22 in1023.4 mb - 0.00 in0.0 mm 0.00 in0.0 mm
08:10 PM 39.4°F4.1°C 25.9°F-3.4°C 58% 3.5 mph SSE5.6 kmh SSE 4.6 mph7.4 kmh 30.22 in1023.4 mb - 0.00 in0.0 mm 0.00 in0.0 mm
08:20 PM 39.1°F3.9°C 25.9°F-3.4°C 59% 3.5 mph SSE5.6 kmh SSE 4.6 mph7.4 kmh 30.22 in1023.4 mb - 0.00 in0.0 mm 0.00 in0.0 mm
08:30 PM 38.9°F3.8°C 26.2°F-3.2°C 60% 3.5 mph SE5.6 kmh SE 5.8 mph9.3 kmh 30.22 in1023.4 mb - 0.00 in0.0 mm 0.00 in0.0 mm
08:40 PM 38.8°F3.8°C 26.5°F-3.1°C 61% 5.8 mph SSE9.3 kmh SSE 8.1 mph13.0 kmh 30.22 in1023.4 mb - 0.00 in0.0 mm 0.00 in0.0 mm
08:50 PM 38.8°F3.8°C 26.5°F-3.1°C 61% 4.6 mph SSE7.4 kmh SSE 6.9 mph11.1 kmh 30.21 in1023.0 mb - 0.00 in0.0 mm 0.00 in0.0 mm
09:00 PM 38.8°F3.8°C 26.9°F-2.8°C 62% 5.8 mph SSE9.3 kmh SSE 8.1 mph13.0 kmh 30.22 in1023.4 mb - 0.00 in0.0 mm 0.00 in0.0 mm
09:10 PM 38.9°F3.8°C 26.6°F-3.0°C 61% 6.9 mph SSE11.1 kmh SSE 10.4 mph16.7 kmh 30.21 in1023.0 mb - 0.00 in0.0 mm 0.00 in0.0 mm
09:20 PM 39.1°F3.9°C 26.8°F-2.9°C 61% 6.9 mph SSE11.1 kmh SSE 8.1 mph13.0 kmh 30.21 in1023.0 mb - 0.00 in0.0 mm 0.00 in0.0 mm
09:30 PM 39.2°F4.0°C 26.5°F-3.1°C 60% 4.6 mph S7.4 kmh S 9.2 mph14.8 kmh 30.21 in1023.0 mb - 0.00 in0.0 mm 0.00 in0.0 mm
09:40 PM 39.2°F4.0°C 26.5°F-3.1°C 60% 5.8 mph SSE9.3 kmh SSE 8.1 mph13.0 kmh 30.20 in1022.7 mb - 0.00 in0.0 mm 0.00 in0.0 mm
09:50 PM 39.2°F4.0°C 26.5°F-3.1°C 60% 6.9 mph SSE11.1 kmh SSE 9.2 mph14.8 kmh 30.20 in1022.7 mb - 0.00 in0.0 mm 0.00 in0.0 mm
10:00 PM 39.1°F3.9°C 26.4°F-3.1°C 60% 5.8 mph SSE9.3 kmh SSE 11.5 mph18.5 kmh 30.20 in1022.7 mb - 0.00 in0.0 mm 0.00 in0.0 mm
10:10 PM 39.1°F3.9°C 26.4°F-3.1°C 60% 6.9 mph SSE11.1 kmh SSE 9.2 mph14.8 kmh 30.20 in1022.7 mb - 0.00 in0.0 mm 0.00 in0.0 mm
10:20 PM 39.1°F3.9°C 26.4°F-3.1°C 60% 8.1 mph SSE13.0 kmh SSE 11.5 mph18.5 kmh 30.20 in1022.7 mb - 0.00 in0.0 mm 0.00 in0.0 mm
10:30 PM 39.2°F4.0°C 26.5°F-3.1°C 60% 9.2 mph SSE14.8 kmh SSE 13.8 mph22.2 kmh 30.19 in1022.4 mb - 0.00 in0.0 mm 0.00 in0.0 mm
10:40 PM 39.1°F3.9°C 26.4°F-3.1°C 60% 6.9 mph SE11.1 kmh SE 11.5 mph18.5 kmh 30.19 in1022.4 mb - 0.00 in0.0 mm 0.00 in0.0 mm
10:50 PM 39.0°F3.9°C 26.3°F-3.2°C 60% 6.9 mph SE11.1 kmh SE 11.5 mph18.5 kmh 30.19 in1022.4 mb - 0.00 in0.0 mm 0.00 in0.0 mm
11:00 PM 39.1°F3.9°C 26.4°F-3.1°C 60% 8.1 mph SSE13.0 kmh SSE 12.7 mph20.4 kmh 30.19 in1022.4 mb - 0.00 in0.0 mm 0.00 in0.0 mm
11:10 PM 39.0°F3.9°C 26.3°F-3.2°C 60% 8.1 mph SSE13.0 kmh SSE 11.5 mph18.5 kmh 30.19 in1022.4 mb - 0.00 in0.0 mm 0.00 in0.0 mm
11:20 PM 39.1°F3.9°C 26.8°F-2.9°C 61% 5.8 mph SSE9.3 kmh SSE 11.5 mph18.5 kmh 30.19 in1022.4 mb - 0.00 in0.0 mm 0.00 in0.0 mm
11:30 PM 39.2°F4.0°C 26.9°F-2.8°C 61% 8.1 mph SSE13.0 kmh SSE 12.7 mph20.4 kmh 30.19 in1022.4 mb - 0.00 in0.0 mm 0.00 in0.0 mm
11:40 PM 39.3°F4.1°C 27.0°F-2.8°C 61% 8.1 mph SSE13.0 kmh SSE 16.1 mph25.9 kmh 30.18 in1022.0 mb - 0.00 in0.0 mm 0.00 in0.0 mm
11:50 PM 39.4°F4.1°C 27.1°F-2.7°C 61% 9.2 mph SSE14.8 kmh SSE 13.8 mph22.2 kmh 30.18 in1022.0 mb - 0.00 in0.0 mm 0.00 in0.0 mm